createdAt,value
2019-04-04T00:02:19.085Z,411.90
2019-04-04T00:04:47.289Z,428.93
2019-04-04T00:07:14.647Z,406.93
2019-04-04T00:09:42.213Z,436.33
2019-04-04T00:12:09.591Z,394.33
2019-04-04T00:14:46.403Z,441.07
2019-04-04T00:17:22.919Z,402.47
2019-04-04T00:20:04.553Z,432.60
2019-04-04T00:22:43.163Z,440.50
2019-04-04T00:25:22.808Z,433.43
2019-04-04T00:28:08.395Z,435.10
2019-04-04T00:30:36.751Z,397.00
2019-04-04T00:33:13.021Z,422.80
2019-04-04T00:35:41.122Z,428.77
2019-04-04T00:38:12.603Z,417.83
2019-04-04T00:40:41.955Z,401.83
2019-04-04T00:43:13.898Z,426.43
2019-04-04T00:45:49.860Z,414.10
2019-04-04T00:48:44.798Z,412.47
2019-04-04T00:51:18.924Z,402.27
2019-04-04T00:53:46.940Z,405.07
2019-04-04T00:56:26.826Z,423.07
2019-04-04T00:58:56.124Z,406.43
2019-04-04T01:01:26.877Z,399.93
2019-04-04T01:04:04.857Z,408.73
2019-04-04T01:06:41.272Z,387.50
2019-04-04T01:09:28.968Z,436.83
2019-04-04T01:11:57.065Z,420.47
2019-04-04T01:14:48.392Z,435.10
2019-04-04T01:17:18.050Z,408.87
2019-04-04T01:19:48.710Z,430.63
2019-04-04T01:22:18.131Z,404.13
2019-04-04T01:24:46.159Z,434.07
2019-04-04T01:27:14.330Z,411.37
2019-04-04T01:29:53.052Z,458.90
2019-04-04T01:32:22.654Z,458.03
2019-04-04T01:34:52.134Z,486.73
2019-04-04T01:37:26.907Z,438.90
2019-04-04T01:40:37.124Z,463.27
2019-04-04T01:43:05.130Z,415.47
2019-04-04T01:45:44.164Z,446.03
2019-04-04T01:48:27.572Z,435.00
2019-04-04T01:50:55.683Z,447.37
2019-04-04T01:53:23.729Z,418.23
2019-04-04T01:55:51.785Z,457.33
2019-04-04T01:58:19.767Z,438.77
2019-04-04T02:00:48.696Z,438.63
2019-04-04T02:03:22.745Z,434.40
2019-04-04T02:05:51.137Z,440.43
2019-04-04T02:08:19.803Z,435.20
2019-04-04T02:10:47.488Z,440.53
2019-04-04T02:13:16.832Z,435.27
2019-04-04T02:15:45.620Z,424.97
2019-04-04T02:18:35.766Z,429.13
2019-04-04T02:21:04.944Z,422.57
2019-04-04T02:23:36.523Z,450.73
2019-04-04T02:26:05.142Z,453.57
2019-04-04T02:28:33.254Z,433.97
2019-04-04T02:31:01.049Z,445.47
2019-04-04T02:33:31.959Z,419.13
2019-04-04T02:35:57.789Z,411.43
2019-04-04T02:38:28.110Z,468.20
2019-04-04T02:40:55.021Z,405.33
2019-04-04T02:43:27.424Z,421.43
2019-04-04T02:45:53.273Z,416.80
2019-04-04T02:48:23.368Z,416.20
2019-04-04T02:50:50.354Z,422.73
2019-04-04T02:53:20.427Z,416.73
2019-04-04T02:55:47.533Z,428.27
2019-04-04T02:58:15.503Z,434.50
2019-04-04T03:00:43.073Z,412.13
2019-04-04T03:03:10.636Z,412.60
2019-04-04T03:05:38.233Z,418.33
2019-04-04T03:08:06.073Z,417.90
2019-04-04T03:10:33.697Z,427.77
2019-04-04T03:13:03.373Z,409.60
2019-04-04T03:15:31.111Z,458.63
2019-04-04T03:17:58.790Z,401.43
2019-04-04T03:20:27.452Z,410.20
2019-04-04T03:23:00.284Z,430.07
2019-04-04T03:25:27.127Z,420.60
2019-04-04T03:27:55.534Z,403.03
2019-04-04T03:30:24.496Z,408.40
2019-04-04T03:32:54.731Z,396.20
2019-04-04T03:35:26.551Z,383.10
2019-04-04T03:37:51.159Z,420.23
2019-04-04T03:40:19.347Z,422.87
2019-04-04T03:42:46.973Z,399.67
2019-04-04T03:45:14.385Z,402.87
2019-04-04T03:47:44.493Z,390.17
2019-04-04T03:50:11.261Z,409.57
2019-04-04T03:52:43.382Z,446.97
2019-04-04T03:55:09.785Z,413.73
2019-04-04T03:57:37.422Z,428.20
2019-04-04T04:00:07.080Z,420.63
2019-04-04T04:02:35.817Z,414.37
2019-04-04T04:05:17.411Z,401.23
2019-04-04T04:07:45.823Z,403.60
2019-04-04T04:10:14.024Z,439.37
2019-04-04T04:12:43.043Z,419.47
2019-04-04T04:15:10.775Z,417.53
2019-04-04T04:17:38.197Z,409.57
2019-04-04T04:20:06.755Z,419.23
2019-04-04T04:22:34.110Z,440.17
2019-04-04T04:25:03.267Z,434.27
2019-04-04T04:27:30.889Z,405.53
2019-04-04T04:29:59.766Z,445.57
2019-04-04T04:32:28.769Z,422.83
2019-04-04T04:34:56.779Z,472.03
2019-04-04T04:37:24.275Z,421.60
2019-04-04T04:39:51.708Z,467.43
2019-04-04T04:42:21.121Z,448.33
2019-04-04T04:44:48.629Z,470.60
2019-04-04T04:47:16.215Z,424.07
2019-04-04T04:49:43.801Z,456.73
2019-04-04T04:52:14.211Z,445.17
2019-04-04T04:54:40.908Z,479.63
2019-04-04T04:57:08.551Z,440.50
2019-04-04T04:59:36.197Z,487.57
2019-04-04T05:02:03.894Z,428.67
2019-04-04T05:04:31.384Z,461.33
2019-04-04T05:06:59.527Z,467.67
2019-04-04T05:09:27.178Z,485.83
2019-04-04T05:11:54.843Z,431.83
2019-04-04T05:14:22.378Z,443.90
2019-04-04T05:16:50.075Z,421.53
2019-04-04T05:19:18.978Z,426.03
2019-04-04T05:21:49.239Z,392.17
2019-04-04T05:24:18.014Z,435.30
2019-04-04T05:26:46.291Z,405.30
2019-04-04T05:29:14.143Z,429.23
2019-04-04T05:31:41.950Z,420.57
2019-04-04T05:34:09.793Z,444.57
2019-04-04T05:36:37.426Z,416.53
2019-04-04T05:39:07.919Z,437.33
2019-04-04T05:41:37.296Z,392.17
2019-04-04T05:44:04.860Z,469.83
2019-04-04T05:46:33.366Z,420.67
2019-04-04T05:49:07.573Z,437.03
2019-04-04T05:51:30.255Z,413.37
2019-04-04T05:53:57.926Z,420.97
2019-04-04T05:56:25.354Z,400.20
2019-04-04T05:58:53.664Z,406.37
2019-04-04T06:01:21.978Z,414.77
2019-04-04T06:03:49.528Z,401.57
2019-04-04T06:06:16.868Z,431.13
2019-04-04T06:08:44.284Z,405.87
2019-04-04T06:11:12.396Z,417.13
2019-04-04T06:13:40.257Z,397.27
2019-04-04T06:16:07.717Z,421.53
2019-04-04T06:18:35.145Z,394.67
2019-04-04T06:21:02.809Z,435.23
2019-04-04T06:23:30.148Z,385.90
2019-04-04T06:25:57.473Z,419.43
2019-04-04T06:28:24.876Z,412.90
2019-04-04T06:30:54.170Z,390.13
2019-04-04T06:33:21.762Z,383.00
2019-04-04T06:35:49.187Z,397.33
2019-04-04T06:38:16.670Z,391.43
2019-04-04T06:40:44.029Z,379.97
2019-04-04T06:43:12.038Z,362.63
2019-04-04T06:45:39.593Z,375.93
2019-04-04T06:48:07.978Z,393.13
2019-04-04T06:50:38.897Z,391.17
2019-04-04T06:53:04.756Z,423.67
2019-04-04T06:55:32.201Z,395.33
2019-04-04T06:57:59.605Z,385.60
2019-04-04T07:00:27.138Z,411.93
2019-04-04T07:02:56.077Z,393.43
2019-04-04T07:05:23.588Z,410.80
2019-04-04T07:07:51.075Z,395.87
2019-04-04T07:10:21.037Z,390.60
2019-04-04T07:12:48.996Z,394.50
2019-04-04T07:15:18.065Z,388.90
2019-04-04T07:17:45.708Z,379.90
2019-04-04T07:20:16.694Z,392.93
2019-04-04T07:22:44.143Z,415.47
2019-04-04T07:25:11.697Z,405.43
2019-04-04T07:27:39.118Z,380.57
2019-04-04T07:30:08.126Z,438.13
2019-04-04T07:32:35.662Z,396.43
2019-04-04T07:35:03.736Z,383.00
2019-04-04T07:37:31.047Z,404.47
2019-04-04T07:39:58.356Z,414.13
2019-04-04T07:42:25.694Z,398.57
2019-04-04T07:44:54.746Z,438.80
2019-04-04T07:47:22.613Z,425.87
2019-04-04T07:49:53.158Z,420.53
2019-04-04T07:52:20.793Z,392.80
2019-04-04T07:54:48.130Z,412.20
2019-04-04T07:57:17.346Z,395.97
2019-04-04T07:59:44.953Z,440.20
2019-04-04T08:02:12.412Z,419.73
2019-04-04T08:04:39.974Z,440.67
2019-04-04T08:07:07.327Z,447.37
2019-04-04T08:09:34.972Z,456.57
2019-04-04T08:12:02.577Z,401.77
2019-04-04T08:14:30.017Z,435.63
2019-04-04T08:16:57.373Z,359.47
2019-04-04T08:19:24.795Z,441.30
2019-04-04T08:21:52.118Z,400.53
2019-04-04T08:24:19.445Z,411.57
2019-04-04T08:26:47.102Z,390.23
2019-04-04T08:29:14.477Z,426.10
2019-04-04T08:31:41.841Z,426.17
2019-04-04T08:34:09.218Z,423.50
2019-04-04T08:36:36.700Z,408.87
2019-04-04T08:39:07.845Z,477.60
2019-04-04T08:41:35.212Z,389.47
2019-04-04T08:44:03.073Z,411.77
2019-04-04T08:46:30.732Z,369.40
2019-04-04T08:48:58.182Z,405.17
2019-04-04T08:51:25.497Z,400.13
2019-04-04T08:53:53.021Z,415.00
2019-04-04T08:56:20.365Z,371.60
2019-04-04T08:58:47.704Z,408.63
2019-04-04T09:01:15.169Z,397.13
2019-04-04T09:03:42.723Z,378.40
2019-04-04T09:06:10.067Z,392.47
2019-04-04T09:08:37.493Z,394.37
2019-04-04T09:11:05.107Z,416.23
2019-04-04T09:13:32.750Z,438.93
2019-04-04T09:16:00.175Z,417.67
2019-04-04T09:18:27.596Z,380.10
2019-04-04T09:20:54.959Z,371.70
2019-04-04T09:23:22.380Z,393.07
2019-04-04T09:25:50.702Z,385.43
2019-04-04T09:28:18.042Z,397.70
2019-04-04T09:30:45.636Z,374.07
2019-04-04T09:33:13.055Z,392.37
2019-04-04T09:35:40.549Z,380.90
2019-04-04T09:38:07.924Z,360.50
2019-04-04T09:40:35.269Z,387.27
2019-04-04T09:43:02.677Z,386.03
2019-04-04T09:46:23.577Z,351.37
2019-04-04T09:48:50.924Z,355.77
2019-04-04T09:51:18.216Z,365.67
2019-04-04T09:53:52.871Z,364.23
2019-04-04T09:56:15.050Z,351.20
2019-04-04T09:58:42.525Z,382.07
2019-04-04T10:01:09.932Z,377.80
2019-04-04T10:03:37.609Z,352.37
2019-04-04T10:06:05.119Z,349.77
2019-04-04T10:08:32.741Z,370.60
2019-04-04T10:11:00.135Z,365.90
2019-04-04T10:13:27.575Z,349.53
2019-04-04T10:15:55.077Z,351.87
2019-04-04T10:18:22.382Z,372.07
2019-04-04T10:20:49.787Z,354.43
2019-04-04T10:23:17.117Z,348.47
2019-04-04T10:25:44.478Z,358.87
2019-04-04T10:28:11.946Z,379.17
2019-04-04T10:30:40.277Z,365.57
2019-04-04T10:33:07.727Z,335.93
2019-04-04T10:35:35.268Z,396.30
2019-04-04T10:38:02.733Z,336.07
2019-04-04T10:40:30.266Z,342.77
2019-04-04T10:42:57.731Z,345.97
2019-04-04T10:45:25.277Z,351.20
2019-04-04T10:47:52.632Z,345.80
2019-04-04T10:50:20.059Z,346.60
2019-04-04T10:52:47.611Z,355.03
2019-04-04T10:55:15.070Z,339.93
2019-04-04T10:57:42.475Z,346.53
2019-04-04T11:00:11.650Z,356.57
2019-04-04T11:02:39.046Z,358.10
2019-04-04T11:05:06.693Z,382.20
2019-04-04T11:07:34.490Z,360.07
2019-04-04T11:10:01.854Z,348.23
2019-04-04T11:12:29.704Z,319.93
2019-04-04T11:14:57.048Z,360.60
2019-04-04T11:17:24.472Z,344.20
2019-04-04T11:19:51.904Z,383.80
2019-04-04T11:22:19.278Z,372.90
2019-04-04T11:24:46.680Z,382.47
2019-04-04T11:27:14.014Z,356.87
2019-04-04T11:29:41.373Z,373.37
2019-04-04T11:32:08.827Z,370.57
2019-04-04T11:34:36.282Z,402.23
2019-04-04T11:37:03.850Z,392.47
2019-04-04T11:39:31.224Z,398.10
2019-04-04T11:41:58.914Z,378.07
2019-04-04T11:44:26.341Z,429.67
2019-04-04T11:46:53.826Z,381.80
2019-04-04T11:49:21.363Z,410.87
2019-04-04T11:51:51.797Z,349.17
2019-04-04T11:54:19.332Z,409.60
2019-04-04T11:56:46.737Z,362.83
2019-04-04T11:59:14.359Z,408.23
2019-04-04T12:01:42.473Z,369.93
2019-04-04T12:04:09.926Z,421.60
2019-04-04T12:06:37.319Z,370.60
2019-04-04T12:09:07.303Z,412.43
2019-04-04T12:11:35.054Z,395.43
2019-04-04T12:14:03.338Z,403.03
2019-04-04T12:16:32.707Z,392.97
2019-04-04T12:19:00.347Z,390.97
2019-04-04T12:21:28.280Z,421.03
2019-04-04T12:23:56.961Z,398.30
2019-04-04T12:26:24.447Z,406.83
2019-04-04T12:28:52.087Z,400.93
2019-04-04T12:31:20.063Z,395.30
2019-04-04T12:33:48.427Z,377.57
2019-04-04T12:36:24.541Z,396.53
2019-04-04T12:38:46.345Z,382.93
2019-04-04T12:41:13.847Z,389.90
2019-04-04T12:43:41.322Z,406.03
2019-04-04T12:46:09.190Z,399.87
2019-04-04T12:48:36.534Z,401.90
2019-04-04T12:51:04.525Z,403.33
2019-04-04T12:53:32.888Z,419.07
2019-04-04T12:56:01.823Z,396.83
2019-04-04T12:58:29.190Z,416.77
2019-04-04T13:00:56.650Z,401.67
2019-04-04T13:03:24.219Z,367.43
2019-04-04T13:05:52.772Z,397.33
2019-04-04T13:08:20.757Z,399.13
2019-04-04T13:10:48.216Z,372.40
2019-04-04T13:13:16.362Z,381.70
2019-04-04T13:15:43.784Z,399.33
2019-04-04T13:18:11.266Z,387.00
2019-04-04T13:20:38.609Z,397.70
2019-04-04T13:23:06.023Z,400.93
2019-04-04T13:25:33.488Z,369.00
2019-04-04T13:28:00.805Z,383.10
2019-04-04T13:30:28.158Z,418.47
2019-04-04T13:32:56.268Z,377.57
2019-04-04T13:35:23.627Z,387.47
2019-04-04T13:37:52.785Z,414.47
2019-04-04T13:40:20.395Z,400.53
2019-04-04T13:42:48.009Z,390.70
2019-04-04T13:45:16.016Z,400.53
2019-04-04T13:47:44.634Z,387.70
2019-04-04T13:50:12.940Z,413.43
2019-04-04T13:52:41.013Z,383.63
2019-04-04T13:55:08.705Z,387.93
2019-04-04T13:57:39.106Z,372.43
2019-04-04T14:00:09.167Z,398.73
2019-04-04T14:02:36.926Z,390.50
2019-04-04T14:05:10.183Z,411.10
2019-04-04T14:07:37.282Z,408.10
2019-04-04T14:10:05.843Z,397.37
2019-04-04T14:12:36.367Z,389.07
2019-04-04T14:15:05.414Z,399.20
2019-04-04T14:17:33.223Z,392.53
2019-04-04T14:20:00.735Z,402.77
2019-04-04T14:22:28.091Z,402.20
2019-04-04T14:24:55.618Z,414.67
2019-04-04T14:27:23.229Z,378.20
2019-04-04T14:29:55.171Z,416.63
2019-04-04T14:32:22.230Z,374.43
2019-04-04T14:34:49.801Z,424.33
2019-04-04T14:37:17.303Z,392.27
2019-04-04T14:39:46.691Z,417.83
2019-04-04T14:42:14.057Z,401.70
2019-04-04T14:44:41.720Z,419.73
2019-04-04T14:47:09.291Z,403.40
2019-04-04T14:49:37.261Z,416.43
2019-04-04T14:52:04.820Z,389.03
2019-04-04T14:54:32.709Z,532.43
2019-04-04T14:57:00.264Z,374.70
2019-04-04T14:59:28.308Z,421.43
2019-04-04T15:01:56.205Z,342.73
2019-04-04T15:04:26.355Z,409.80
2019-04-04T15:06:54.293Z,370.50
2019-04-04T15:09:21.851Z,403.27
2019-04-04T15:11:50.162Z,388.07
2019-04-04T15:14:18.921Z,406.67
2019-04-04T15:16:46.709Z,407.93
2019-04-04T15:19:17.442Z,409.13
2019-04-04T15:21:50.582Z,417.40
2019-04-04T15:24:18.250Z,419.20
2019-04-04T15:26:47.995Z,386.80
2019-04-04T15:29:16.561Z,395.13
2019-04-04T15:31:44.246Z,382.23
2019-04-04T15:34:11.745Z,413.47
2019-04-04T15:36:39.074Z,387.63
2019-04-04T15:39:06.834Z,424.13
2019-04-04T15:41:37.093Z,402.97
2019-04-04T15:44:03.824Z,407.37
2019-04-04T15:46:32.128Z,404.93
2019-04-04T15:48:59.597Z,387.37
2019-04-04T15:51:28.039Z,384.57
2019-04-04T15:53:55.609Z,378.17
2019-04-04T15:56:23.494Z,399.57
2019-04-04T15:58:51.020Z,411.70
2019-04-04T16:01:18.373Z,386.57
2019-04-04T16:03:45.847Z,390.23
2019-04-04T16:06:15.270Z,362.37
2019-04-04T16:08:43.500Z,379.77
2019-04-04T16:11:10.966Z,402.40
2019-04-04T16:13:38.334Z,398.87
2019-04-04T16:16:06.659Z,411.03
2019-04-04T16:18:34.287Z,373.13
2019-04-04T16:21:02.305Z,401.00
2019-04-04T16:23:30.695Z,363.70
2019-04-04T16:25:58.263Z,381.87
2019-04-04T16:28:25.697Z,400.97
2019-04-04T16:30:55.053Z,450.33
2019-04-04T16:33:22.479Z,422.80
2019-04-04T16:35:50.024Z,437.93
2019-04-04T16:38:18.034Z,401.60
2019-04-04T16:40:45.751Z,400.80
2019-04-04T16:43:13.294Z,383.87
2019-04-04T16:45:44.003Z,379.30
2019-04-04T16:48:13.846Z,379.33
2019-04-04T16:50:41.958Z,383.03
2019-04-04T16:53:09.411Z,396.00
2019-04-04T16:55:38.709Z,427.80
2019-04-04T16:58:06.191Z,410.13
2019-04-04T17:00:35.090Z,406.17
2019-04-04T17:03:02.814Z,397.83
2019-04-04T17:05:30.514Z,384.17
2019-04-04T17:07:58.009Z,438.13
2019-04-04T17:10:28.099Z,405.33
2019-04-04T17:12:56.408Z,386.83
2019-04-04T17:15:24.101Z,386.83
2019-04-04T17:17:51.605Z,407.87
2019-04-04T17:20:20.854Z,413.10
2019-04-04T17:22:53.279Z,404.77
2019-04-04T17:25:22.188Z,418.90
2019-04-04T17:27:51.851Z,414.03
2019-04-04T17:30:20.862Z,419.93
2019-04-04T17:32:49.647Z,424.57
2019-04-04T17:35:17.938Z,428.80
2019-04-04T17:37:46.111Z,390.73
2019-04-04T17:40:14.115Z,412.27
2019-04-04T17:42:44.032Z,389.30
2019-04-04T17:45:13.129Z,439.23
2019-04-04T17:47:40.809Z,405.80
2019-04-04T17:50:10.151Z,431.07
2019-04-04T17:52:37.871Z,385.17
2019-04-04T17:55:05.997Z,392.17
2019-04-04T17:57:33.797Z,407.83
2019-04-04T18:00:01.485Z,410.00
2019-04-04T18:02:29.081Z,351.10
2019-04-04T18:04:56.511Z,391.17
2019-04-04T18:07:23.979Z,365.37
2019-04-04T18:09:51.680Z,392.20
2019-04-04T18:12:19.298Z,357.73
2019-04-04T18:14:46.676Z,376.70
2019-04-04T18:17:15.485Z,368.13
2019-04-04T18:19:43.045Z,385.90
2019-04-04T18:22:10.579Z,374.27
2019-04-04T18:24:38.135Z,418.97
2019-04-04T18:27:06.047Z,356.87
2019-04-04T18:29:33.972Z,412.27
2019-04-04T18:32:02.424Z,349.63
2019-04-04T18:34:31.727Z,413.70
2019-04-04T18:37:00.146Z,409.30
2019-04-04T18:39:27.505Z,434.73
2019-04-04T18:41:56.052Z,405.67
2019-04-04T18:44:24.936Z,406.00
2019-04-04T18:46:53.278Z,415.23
2019-04-04T18:49:23.484Z,446.97
2019-04-04T18:51:51.084Z,404.60
2019-04-04T18:54:18.678Z,180.30
2019-04-04T18:56:49.808Z,194.70
2019-04-04T18:59:19.648Z,185.03
2019-04-04T19:01:52.295Z,182.73
2019-04-04T19:04:20.812Z,183.13
2019-04-04T19:06:49.190Z,187.47
2019-04-04T19:09:16.676Z,173.90
2019-04-04T19:11:45.756Z,180.27
2019-04-04T19:14:13.341Z,197.43
2019-04-04T19:16:41.068Z,177.93
2019-04-04T19:19:08.858Z,178.50
2019-04-04T19:21:36.638Z,179.70
2019-04-04T19:24:05.151Z,446.17
2019-04-04T19:26:34.970Z,456.53
2019-04-04T19:29:03.790Z,444.97
2019-04-04T19:31:32.898Z,410.53
2019-04-04T19:34:00.273Z,414.63
2019-04-04T19:36:30.489Z,412.13
2019-04-04T19:38:59.483Z,425.80
2019-04-04T19:41:28.143Z,428.90
2019-04-04T19:43:55.664Z,405.53
2019-04-04T19:46:36.441Z,435.63
2019-04-04T19:48:55.315Z,430.73
2019-04-04T19:51:22.708Z,409.17
2019-04-04T19:53:50.640Z,431.20
2019-04-04T19:56:17.946Z,421.87
2019-04-04T19:58:46.272Z,421.67
2019-04-04T20:01:15.010Z,420.13
2019-04-04T20:03:42.552Z,424.53
2019-04-04T20:06:11.120Z,419.93
2019-04-04T20:08:38.750Z,442.17
2019-04-04T20:11:07.023Z,389.50
2019-04-04T20:13:47.914Z,403.83
2019-04-04T20:16:16.957Z,417.77
2019-04-04T20:18:45.437Z,455.30
2019-04-04T20:21:13.773Z,412.47
2019-04-04T20:23:45.400Z,430.50
2019-04-04T20:26:13.150Z,402.63
2019-04-04T20:28:40.612Z,417.93
2019-04-04T20:31:08.232Z,388.40
2019-04-04T20:33:35.891Z,396.83
2019-04-04T20:36:05.016Z,391.03
2019-04-04T20:38:33.726Z,404.90
2019-04-04T20:41:01.510Z,395.87
2019-04-04T20:43:29.194Z,402.00
2019-04-04T20:45:58.053Z,378.57
2019-04-04T20:48:27.239Z,397.43
2019-04-04T20:50:54.897Z,410.67
2019-04-04T20:53:22.453Z,406.13
2019-04-04T20:55:50.034Z,454.30
2019-04-04T20:58:17.632Z,390.10
2019-04-04T21:00:46.352Z,419.93
2019-04-04T21:03:13.981Z,392.87
2019-04-04T21:05:41.461Z,388.57
2019-04-04T21:08:11.973Z,393.23
2019-04-04T21:10:42.363Z,380.70
2019-04-04T21:13:10.054Z,391.90
2019-04-04T21:15:40.159Z,369.60
2019-04-04T21:18:07.783Z,395.93
2019-04-04T21:20:35.239Z,402.13
2019-04-04T21:23:02.811Z,387.93
2019-04-04T21:25:30.301Z,387.37
2019-04-04T21:27:57.961Z,395.87
2019-04-04T21:30:25.665Z,379.23
2019-04-04T21:32:53.080Z,424.13
2019-04-04T21:35:21.673Z,393.03
2019-04-04T21:37:49.298Z,400.43
2019-04-04T21:40:16.746Z,388.63
2019-04-04T21:42:45.478Z,395.17
2019-04-04T21:45:15.297Z,405.93
2019-04-04T21:47:42.461Z,379.87
2019-04-04T21:50:09.954Z,422.33
2019-04-04T21:52:37.374Z,411.47
2019-04-04T21:55:05.832Z,409.50
2019-04-04T21:57:33.178Z,398.57
2019-04-04T22:00:00.627Z,397.13
2019-04-04T22:02:28.082Z,406.60
2019-04-04T22:04:57.362Z,396.07
2019-04-04T22:07:25.664Z,412.03
2019-04-04T22:09:53.235Z,437.50
2019-04-04T22:12:20.825Z,407.00
2019-04-04T22:14:48.313Z,421.43
2019-04-04T22:17:16.706Z,398.37
2019-04-04T22:19:44.692Z,436.03
2019-04-04T22:22:13.548Z,386.27
2019-04-04T22:24:41.896Z,429.97
2019-04-04T22:27:10.039Z,374.03
2019-04-04T22:29:37.377Z,422.20
2019-04-04T22:32:04.757Z,378.00
2019-04-04T22:34:33.145Z,433.10
2019-04-04T22:37:00.539Z,369.23
2019-04-04T22:39:28.274Z,403.23
2019-04-04T22:41:55.631Z,444.17
2019-04-04T22:44:34.017Z,429.83
2019-04-04T22:46:53.898Z,422.23
2019-04-04T22:49:21.877Z,432.17
2019-04-04T22:51:49.380Z,398.37
2019-04-04T22:54:17.043Z,429.97
2019-04-04T22:56:44.388Z,380.27
2019-04-04T22:59:11.792Z,432.07
2019-04-04T23:01:39.331Z,404.57
2019-04-04T23:04:06.981Z,408.77
2019-04-04T23:06:36.333Z,390.77
2019-04-04T23:09:08.059Z,430.60
2019-04-04T23:11:35.549Z,400.67
2019-04-04T23:14:04.090Z,433.77
2019-04-04T23:16:31.695Z,396.27
2019-04-04T23:18:59.229Z,435.87
2019-04-04T23:21:26.733Z,390.93
2019-04-04T23:23:54.539Z,419.83
2019-04-04T23:26:22.060Z,401.03
2019-04-04T23:28:49.434Z,394.57
2019-04-04T23:31:16.913Z,404.87
2019-04-04T23:33:44.580Z,399.23
2019-04-04T23:36:12.133Z,403.03
2019-04-04T23:38:41.499Z,384.67
2019-04-04T23:41:09.126Z,399.80
2019-04-04T23:43:36.513Z,418.03
2019-04-04T23:46:04.060Z,400.53
2019-04-04T23:48:31.672Z,409.23
2019-04-04T23:50:59.099Z,402.00
2019-04-04T23:53:26.757Z,414.50
2019-04-04T23:55:54.377Z,436.60
2019-04-04T23:58:21.834Z,419.43
